createdAt,value
2019-06-07T00:00:29.624Z,17.97
2019-06-07T00:02:45.971Z,18.00
2019-06-07T00:05:19.628Z,17.10
2019-06-07T00:07:51.901Z,18.63
2019-06-07T00:10:35.753Z,19.37
2019-06-07T00:12:54.048Z,18.23
2019-06-07T00:15:28.629Z,18.33
2019-06-07T00:17:54.646Z,18.30
2019-06-07T00:20:24.250Z,18.40
2019-06-07T00:22:53.725Z,19.20
2019-06-07T00:25:24.567Z,17.17
2019-06-07T00:27:54.196Z,19.07
2019-06-07T00:30:50.711Z,19.70
2019-06-07T00:32:55.797Z,18.67
2019-06-07T00:35:25.354Z,18.17
2019-06-07T00:37:55.124Z,19.30
2019-06-07T00:40:31.427Z,18.43
2019-06-07T00:42:55.736Z,22.50
2019-06-07T00:45:25.158Z,18.77
2019-06-07T00:47:54.635Z,18.67
2019-06-07T00:50:24.656Z,17.43
2019-06-07T00:55:27.550Z,19.07
2019-06-07T00:57:56.629Z,17.97
2019-06-07T01:00:26.254Z,18.70
2019-06-07T01:02:55.645Z,18.53
2019-06-07T01:05:31.144Z,18.20
2019-06-07T01:07:56.737Z,18.70
2019-06-07T01:10:51.785Z,19.20
2019-06-07T01:12:57.476Z,17.70
2019-06-07T01:15:29.276Z,18.50
2019-06-07T01:18:33.648Z,18.77
2019-06-07T01:20:29.772Z,19.53
2019-06-07T01:22:59.191Z,18.90
2019-06-07T01:25:29.173Z,18.80
2019-06-07T01:27:58.705Z,19.27
2019-06-07T01:30:29.392Z,20.17
2019-06-07T01:32:59.852Z,20.53
2019-06-07T01:35:29.943Z,19.53
2019-06-07T01:37:59.873Z,17.73
2019-06-07T01:40:32.776Z,18.10
2019-06-07T01:43:01.358Z,18.00
2019-06-07T01:45:31.127Z,19.30
2019-06-07T01:48:00.749Z,19.20
2019-06-07T01:50:30.152Z,19.07
2019-06-07T01:52:59.596Z,19.30
2019-06-07T01:55:32.510Z,18.17
2019-06-07T01:58:00.708Z,18.53
2019-06-07T02:00:32.524Z,17.83
2019-06-07T02:03:01.281Z,28.57
2019-06-07T02:05:32.345Z,17.60
2019-06-07T02:08:02.113Z,17.67
2019-06-07T02:10:33.617Z,18.23
2019-06-07T02:13:02.935Z,18.43
2019-06-07T02:15:36.603Z,18.30
2019-06-07T02:18:03.817Z,17.37
2019-06-07T02:20:34.519Z,16.50
2019-06-07T02:23:04.506Z,17.67
2019-06-07T02:25:43.928Z,17.33
2019-06-07T02:28:27.580Z,16.93
2019-06-07T02:30:49.343Z,16.63
2019-06-07T02:33:08.134Z,17.13
2019-06-07T02:35:40.207Z,15.63
2019-06-07T02:38:11.229Z,16.40
2019-06-07T02:40:41.136Z,15.40
2019-06-07T02:43:10.565Z,16.27
2019-06-07T02:45:43.622Z,16.37
2019-06-07T02:48:11.230Z,16.43
2019-06-07T02:50:40.660Z,16.03
2019-06-07T02:53:10.255Z,15.93
2019-06-07T02:56:32.985Z,14.87
2019-06-07T02:58:12.523Z,15.07
2019-06-07T03:01:06.159Z,14.80
2019-06-07T03:03:18.492Z,14.70
2019-06-07T03:05:48.273Z,15.37
2019-06-07T03:08:18.626Z,14.33
2019-06-07T03:10:49.634Z,14.10
2019-06-07T03:13:20.783Z,13.40
2019-06-07T03:15:53.006Z,13.03
2019-06-07T03:18:41.715Z,13.10
2019-06-07T03:21:18.065Z,13.17
2019-06-07T03:23:48.078Z,12.23
2019-06-07T03:26:19.118Z,13.03
2019-06-07T03:28:49.725Z,12.87
2019-06-07T03:31:21.593Z,12.60
2019-06-07T03:33:50.976Z,12.17
2019-06-07T03:36:25.568Z,12.33
2019-06-07T03:38:52.044Z,12.00
2019-06-07T03:41:21.711Z,11.80
2019-06-07T03:43:52.321Z,11.53
2019-06-07T03:46:24.093Z,12.50
2019-06-07T03:48:53.496Z,10.93
2019-06-07T03:51:26.897Z,11.77
2019-06-07T03:53:54.037Z,11.77
2019-06-07T03:56:23.457Z,12.17
2019-06-07T03:58:54.474Z,12.17
2019-06-07T04:01:23.854Z,10.93
2019-06-07T04:03:53.231Z,10.87
2019-06-07T04:06:23.048Z,11.77
2019-06-07T04:08:54.288Z,11.73
2019-06-07T04:11:23.686Z,11.37
2019-06-07T04:13:53.127Z,10.93
2019-06-07T04:16:22.514Z,11.60
2019-06-07T04:18:51.956Z,10.63
2019-06-07T04:21:21.590Z,11.57
2019-06-07T04:23:50.970Z,12.40
2019-06-07T04:26:20.433Z,11.50
2019-06-07T04:31:22.245Z,11.43
2019-06-07T04:33:54.914Z,10.67
2019-06-07T04:36:44.288Z,11.20
2019-06-07T04:39:12.105Z,11.30
2019-06-07T04:41:43.892Z,11.37
2019-06-07T04:44:15.354Z,11.67
2019-06-07T04:46:49.400Z,10.47
2019-06-07T04:49:20.833Z,10.77
2019-06-07T04:51:50.720Z,11.90
2019-06-07T04:54:20.210Z,12.77
2019-06-07T04:56:49.620Z,10.80
2019-06-07T05:00:01.331Z,11.07
2019-06-07T05:01:50.158Z,10.90
2019-06-07T05:04:19.617Z,10.47
2019-06-07T05:06:49.087Z,11.10
2019-06-07T05:09:18.730Z,11.40
2019-06-07T05:11:48.207Z,10.40
2019-06-07T05:14:17.683Z,10.33
2019-06-07T05:16:47.140Z,12.10
2019-06-07T05:19:25.815Z,10.17
2019-06-07T05:22:04.176Z,10.03
2019-06-07T05:24:27.194Z,11.30
2019-06-07T05:26:56.864Z,10.80
2019-06-07T05:29:26.380Z,11.93
2019-06-07T05:31:56.050Z,10.43
2019-06-07T05:34:25.999Z,10.47
2019-06-07T05:37:10.997Z,11.07
2019-06-07T05:39:29.035Z,11.00
2019-06-07T05:41:59.131Z,10.07
2019-06-07T05:44:28.618Z,10.90
2019-06-07T05:46:58.050Z,10.17
2019-06-07T05:49:32.470Z,11.43
2019-06-07T05:52:02.073Z,10.30
2019-06-07T05:54:35.065Z,9.97
2019-06-07T05:57:03.126Z,9.53
2019-06-07T05:59:33.714Z,10.83
2019-06-07T06:02:21.474Z,10.80
2019-06-07T06:04:36.018Z,10.17
2019-06-07T06:07:05.742Z,9.97
2019-06-07T06:09:36.411Z,9.73
2019-06-07T06:12:06.389Z,10.07
2019-06-07T06:14:39.617Z,10.20
2019-06-07T06:17:07.380Z,10.23
2019-06-07T06:19:39.727Z,10.50
2019-06-07T06:22:11.606Z,9.50
2019-06-07T06:24:48.467Z,10.47
2019-06-07T06:27:41.507Z,10.93
2019-06-07T06:29:46.389Z,10.27
2019-06-07T06:32:41.201Z,10.13
2019-06-07T06:34:49.419Z,10.07
2019-06-07T06:37:17.847Z,10.67
2019-06-07T06:39:50.035Z,10.70
2019-06-07T06:42:18.934Z,10.50
2019-06-07T06:44:53.625Z,10.17
2019-06-07T06:47:20.111Z,10.73
2019-06-07T06:49:53.956Z,10.53
2019-06-07T06:52:20.622Z,10.47
2019-06-07T06:54:59.718Z,10.47
2019-06-07T06:57:21.252Z,11.13
2019-06-07T06:59:52.687Z,11.83
2019-06-07T07:02:22.058Z,11.03
2019-06-07T07:04:52.547Z,10.83
2019-06-07T07:07:23.308Z,10.30
2019-06-07T07:09:59.023Z,10.80
2019-06-07T07:12:23.862Z,10.53
2019-06-07T07:14:55.958Z,10.37
2019-06-07T07:18:02.600Z,10.20
2019-06-07T07:20:19.619Z,10.47
2019-06-07T07:22:53.579Z,10.40
2019-06-07T07:25:20.165Z,10.23
2019-06-07T07:27:53.476Z,11.27
2019-06-07T07:30:36.831Z,10.97
2019-06-07T07:32:59.277Z,10.63
2019-06-07T07:35:27.372Z,10.87
2019-06-07T07:37:59.855Z,10.17
2019-06-07T07:40:57.399Z,10.27
2019-06-07T07:42:59.871Z,9.63
2019-06-07T07:45:29.422Z,10.17
2019-06-07T07:48:14.788Z,9.60
2019-06-07T07:50:29.952Z,9.73
2019-06-07T07:53:00.651Z,10.90
2019-06-07T07:55:30.455Z,9.20
2019-06-07T07:58:01.752Z,8.93
2019-06-07T08:03:04.776Z,9.83
2019-06-07T08:05:43.126Z,10.17
2019-06-07T08:08:07.853Z,10.30
2019-06-07T08:10:37.536Z,8.90
2019-06-07T08:13:23.386Z,10.83
2019-06-07T08:15:38.350Z,9.47
2019-06-07T08:18:08.195Z,8.60
2019-06-07T08:20:37.600Z,10.30
2019-06-07T08:23:07.700Z,8.67
2019-06-07T08:25:37.238Z,9.37
2019-06-07T08:28:07.327Z,9.07
2019-06-07T08:31:00.065Z,9.37
2019-06-07T08:33:25.909Z,9.00
2019-06-07T08:36:05.678Z,8.63
2019-06-07T08:38:25.899Z,9.20
2019-06-07T08:40:45.842Z,9.00
2019-06-07T08:43:20.567Z,11.77
2019-06-07T08:45:47.079Z,8.33
2019-06-07T08:48:27.637Z,9.30
2019-06-07T08:50:47.815Z,8.67
2019-06-07T08:53:17.483Z,8.63
2019-06-07T08:55:46.862Z,12.17
2019-06-07T08:58:16.675Z,8.87
2019-06-07T09:00:47.751Z,9.00
2019-06-07T09:03:17.266Z,8.50
2019-06-07T09:05:46.784Z,8.70
2019-06-07T09:08:29.174Z,7.97
2019-06-07T09:10:47.427Z,8.20
2019-06-07T09:13:17.159Z,10.60
2019-06-07T09:15:46.532Z,9.10
2019-06-07T09:18:42.011Z,9.13
2019-06-07T09:20:52.053Z,9.57
2019-06-07T09:23:21.463Z,8.87
2019-06-07T09:26:02.696Z,9.40
2019-06-07T09:28:24.034Z,9.40
2019-06-07T09:30:53.511Z,8.47
2019-06-07T09:33:23.201Z,11.63
2019-06-07T09:35:52.855Z,10.20
2019-06-07T09:38:26.747Z,7.50
2019-06-07T09:40:53.731Z,7.83
2019-06-07T09:45:54.780Z,7.63
2019-06-07T09:49:09.129Z,9.50
2019-06-07T09:51:02.141Z,9.53
2019-06-07T09:53:26.771Z,9.57
2019-06-07T09:55:56.818Z,7.73
2019-06-07T09:58:51.143Z,7.83
2019-06-07T10:01:03.913Z,7.67
2019-06-07T10:03:30.430Z,7.73
2019-06-07T10:06:03.425Z,7.23
2019-06-07T10:11:02.627Z,7.47
2019-06-07T10:13:32.275Z,8.90
2019-06-07T10:16:02.790Z,7.70
2019-06-07T10:18:32.545Z,7.87
2019-06-07T10:21:03.720Z,7.47
2019-06-07T10:23:33.629Z,7.53
2019-06-07T10:26:04.072Z,10.63
2019-06-07T10:28:33.716Z,6.63
2019-06-07T10:31:07.307Z,7.67
2019-06-07T10:33:35.978Z,6.30
2019-06-07T10:36:06.633Z,6.70
2019-06-07T10:38:36.504Z,7.50
2019-06-07T10:41:06.783Z,8.27
2019-06-07T10:43:36.682Z,7.67
2019-06-07T10:46:07.644Z,6.37
2019-06-07T10:48:37.371Z,6.80
2019-06-07T10:51:08.604Z,5.60
2019-06-07T10:53:38.242Z,5.60
2019-06-07T10:56:09.036Z,6.17
2019-06-07T10:58:38.683Z,6.13
2019-06-07T11:01:09.350Z,5.63
2019-06-07T11:03:39.030Z,6.57
2019-06-07T11:06:10.015Z,5.80
2019-06-07T11:08:39.671Z,5.77
2019-06-07T11:11:10.064Z,5.90
2019-06-07T11:13:39.591Z,7.10
2019-06-07T11:16:09.016Z,6.13
2019-06-07T11:18:38.417Z,5.97
2019-06-07T11:21:10.373Z,6.37
2019-06-07T11:23:40.005Z,5.70
2019-06-07T11:26:10.298Z,5.53
2019-06-07T11:28:39.893Z,6.40
2019-06-07T11:31:10.701Z,6.77
2019-06-07T11:33:40.410Z,6.20
2019-06-07T11:36:10.648Z,7.33
2019-06-07T11:38:40.271Z,7.83
2019-06-07T11:41:09.748Z,7.57
2019-06-07T11:43:39.472Z,7.63
2019-06-07T11:46:11.061Z,6.87
2019-06-07T11:48:40.895Z,6.73
2019-06-07T11:51:10.825Z,5.50
2019-06-07T11:53:40.377Z,6.00
2019-06-07T11:56:10.342Z,6.43
2019-06-07T11:58:39.936Z,6.73
2019-06-07T12:01:09.646Z,6.20
2019-06-07T12:03:39.255Z,6.13
2019-06-07T12:06:09.974Z,5.13
2019-06-07T12:08:39.703Z,4.57
2019-06-07T12:11:12.302Z,4.50
2019-06-07T12:13:41.881Z,4.73
2019-06-07T12:16:11.383Z,5.23
2019-06-07T12:18:40.794Z,4.93
2019-06-07T12:21:14.011Z,5.10
2019-06-07T12:23:43.428Z,4.30
2019-06-07T12:26:12.840Z,4.97
2019-06-07T12:28:42.309Z,4.87
2019-06-07T12:31:12.832Z,6.63
2019-06-07T12:33:42.279Z,4.50
2019-06-07T12:43:23.402Z,13.93
2019-06-07T12:45:53.110Z,9.70
2019-06-07T12:48:25.929Z,7.33
2019-06-07T12:50:54.335Z,7.70
2019-06-07T12:53:27.661Z,9.37
2019-06-07T12:55:54.981Z,7.90
2019-06-07T12:58:36.050Z,7.97
2019-06-07T13:01:02.051Z,7.47
2019-06-07T13:03:33.473Z,7.20
2019-06-07T13:06:05.950Z,6.37
2019-06-07T13:08:38.476Z,8.73
2019-06-07T13:11:17.634Z,6.07
2019-06-07T13:13:42.705Z,8.50
2019-06-07T13:16:12.841Z,8.23
2019-06-07T13:18:42.605Z,6.73
2019-06-07T13:21:12.448Z,11.83
2019-06-07T13:23:44.359Z,7.73
2019-06-07T13:26:13.714Z,5.77
2019-06-07T13:28:43.147Z,8.43
2019-06-07T13:31:12.776Z,8.60
2019-06-07T13:33:42.662Z,7.93
2019-06-07T13:36:12.983Z,9.40
2019-06-07T13:38:42.598Z,8.23
2019-06-07T13:41:12.550Z,8.60
2019-06-07T13:43:43.100Z,8.67
2019-06-07T13:46:13.110Z,9.30
2019-06-07T13:48:42.898Z,7.57
2019-06-07T13:51:13.650Z,7.47
2019-06-07T13:53:43.264Z,8.00
2019-06-07T13:56:13.125Z,6.53
2019-06-07T13:58:42.628Z,7.70
2019-06-07T14:01:12.397Z,7.03
2019-06-07T14:03:42.215Z,6.83
2019-06-07T14:06:15.178Z,9.27
2019-06-07T14:08:44.736Z,7.23
2019-06-07T14:11:14.306Z,9.60
2019-06-07T14:13:44.000Z,8.73
2019-06-07T14:16:14.133Z,8.43
2019-06-07T14:18:43.689Z,7.30
2019-06-07T14:21:15.911Z,8.57
2019-06-07T14:23:49.045Z,7.20
2019-06-07T14:26:16.792Z,9.70
2019-06-07T14:28:46.429Z,6.63
2019-06-07T14:31:30.415Z,6.83
2019-06-07T14:34:00.026Z,8.20
2019-06-07T14:36:31.080Z,6.10
2019-06-07T14:39:01.604Z,6.37
2019-06-07T14:41:31.873Z,6.30
2019-06-07T14:44:01.816Z,5.77
2019-06-07T14:46:47.831Z,8.07
2019-06-07T14:49:17.359Z,5.60
2019-06-07T14:51:47.023Z,6.00
2019-06-07T14:54:17.020Z,5.83
2019-06-07T14:56:46.902Z,6.10
2019-06-07T14:59:16.547Z,6.07
2019-06-07T15:01:51.316Z,6.17
2019-06-07T15:04:20.875Z,6.90
2019-06-07T15:06:50.524Z,7.40
2019-06-07T15:09:20.627Z,6.23
2019-06-07T15:11:50.235Z,7.07
2019-06-07T15:14:20.128Z,7.40
2019-06-07T15:16:53.332Z,8.10
2019-06-07T15:19:24.203Z,7.80
2019-06-07T15:21:53.952Z,8.27
2019-06-07T15:24:23.541Z,7.63
2019-06-07T15:26:53.534Z,8.17
2019-06-07T15:29:23.106Z,9.53
2019-06-07T15:31:52.937Z,8.50
2019-06-07T15:34:22.757Z,11.77
2019-06-07T15:36:52.254Z,11.70
2019-06-07T15:39:21.929Z,9.43
2019-06-07T15:41:51.494Z,6.50
2019-06-07T15:44:20.930Z,9.13
2019-06-07T15:46:50.420Z,8.67
2019-06-07T15:49:19.932Z,10.43
2019-06-07T15:51:49.383Z,9.40
2019-06-07T15:54:19.152Z,12.33
2019-06-07T15:56:48.613Z,8.87
2019-06-07T15:59:18.174Z,9.90
2019-06-07T16:01:47.672Z,9.23
2019-06-07T16:04:17.152Z,8.60
2019-06-07T16:06:46.633Z,9.40
2019-06-07T16:09:16.272Z,9.63
2019-06-07T16:11:45.827Z,8.43
2019-06-07T16:14:15.340Z,9.17
2019-06-07T16:16:44.805Z,8.83
2019-06-07T16:19:21.615Z,9.30
2019-06-07T16:21:51.483Z,6.47
2019-06-07T16:24:20.907Z,6.93
2019-06-07T16:26:50.309Z,7.30
2019-06-07T16:29:19.844Z,7.67
2019-06-07T16:31:49.291Z,7.83
2019-06-07T16:34:18.691Z,7.63
2019-06-07T16:36:48.821Z,7.00
2019-06-07T16:39:18.470Z,6.77
2019-06-07T16:41:48.923Z,7.37
2019-06-07T16:44:18.597Z,7.60
2019-06-07T16:46:49.106Z,6.63
2019-06-07T16:49:18.558Z,6.93
2019-06-07T16:51:49.417Z,9.10
2019-06-07T16:54:19.211Z,8.30
2019-06-07T16:56:51.188Z,7.13
2019-06-07T16:59:19.985Z,7.40
2019-06-07T17:01:49.664Z,6.90
2019-06-07T17:04:19.109Z,5.63
2019-06-07T17:06:48.547Z,5.77
2019-06-07T17:09:18.046Z,6.37
2019-06-07T17:11:48.617Z,6.50
2019-06-07T17:14:18.154Z,5.33
2019-06-07T17:16:50.135Z,6.00
2019-06-07T17:19:19.500Z,6.73
2019-06-07T17:21:49.595Z,6.20
2019-06-07T17:24:19.060Z,6.30
2019-06-07T17:26:49.715Z,7.30
2019-06-07T17:29:26.112Z,6.97
2019-06-07T17:31:55.504Z,7.80
2019-06-07T17:34:25.155Z,6.63
2019-06-07T17:36:54.829Z,6.97
2019-06-07T17:39:24.339Z,6.47
2019-06-07T17:42:01.710Z,7.73
2019-06-07T17:44:25.383Z,6.50
2019-06-07T17:46:54.928Z,6.80
2019-06-07T17:49:24.343Z,7.17
2019-06-07T17:51:54.036Z,7.80
2019-06-07T17:54:23.538Z,7.30
2019-06-07T17:56:53.455Z,6.77
2019-06-07T17:59:23.113Z,6.17
2019-06-07T18:02:13.342Z,6.60
2019-06-07T18:04:24.120Z,7.27
2019-06-07T18:06:54.238Z,6.93
2019-06-07T18:09:26.145Z,6.70
2019-06-07T18:11:55.748Z,7.10
2019-06-07T18:14:27.077Z,7.20
2019-06-07T18:16:57.037Z,6.47
2019-06-07T18:19:26.462Z,8.00
2019-06-07T18:21:58.843Z,7.57
2019-06-07T18:24:27.104Z,7.87
2019-06-07T18:26:56.613Z,7.40
2019-06-07T18:29:26.443Z,7.90
2019-06-07T18:31:56.048Z,7.60
2019-06-07T18:34:25.648Z,8.00
2019-06-07T18:36:55.327Z,7.13
2019-06-07T18:39:25.178Z,7.73
2019-06-07T18:41:55.406Z,8.67
2019-06-07T18:44:25.258Z,8.43
2019-06-07T18:46:54.975Z,8.87
2019-06-07T18:49:24.546Z,8.53
2019-06-07T18:52:16.384Z,8.97
2019-06-07T18:54:46.803Z,8.93
2019-06-07T18:57:16.970Z,8.80
2019-06-07T18:59:46.633Z,8.40
2019-06-07T19:02:16.031Z,8.63
2019-06-07T19:04:45.552Z,7.93
2019-06-07T19:07:15.036Z,9.27
2019-06-07T19:09:46.312Z,8.93
2019-06-07T19:12:15.785Z,8.40
2019-06-07T19:14:45.843Z,10.17
2019-06-07T19:17:15.688Z,10.70
2019-06-07T19:19:45.250Z,10.97
2019-06-07T19:22:14.749Z,10.20
2019-06-07T19:24:44.275Z,10.37
2019-06-07T19:27:13.702Z,10.37
2019-06-07T19:29:43.547Z,10.03
2019-06-07T19:32:13.002Z,10.23
2019-06-07T19:34:44.525Z,10.70
2019-06-07T19:37:13.995Z,12.00
2019-06-07T19:42:26.607Z,10.43
2019-06-07T19:45:08.867Z,10.83
2019-06-07T19:47:29.755Z,10.60
2019-06-07T19:50:01.243Z,11.57
2019-06-07T19:52:32.154Z,10.80
2019-06-07T19:55:06.141Z,11.13
2019-06-07T19:57:32.992Z,11.80
2019-06-07T20:00:04.092Z,12.20
2019-06-07T20:02:33.587Z,10.77
2019-06-07T20:05:06.748Z,12.27
2019-06-07T20:07:34.803Z,11.50
2019-06-07T20:10:04.845Z,12.00
2019-06-07T20:12:34.481Z,11.37
2019-06-07T20:15:24.723Z,13.77
2019-06-07T20:17:39.177Z,12.00
2019-06-07T20:20:09.664Z,11.70
2019-06-07T20:22:39.173Z,12.23
2019-06-07T20:25:09.429Z,12.93
2019-06-07T20:27:39.030Z,12.30
2019-06-07T20:30:09.570Z,8.47
2019-06-07T20:32:39.240Z,9.70
2019-06-07T20:35:09.106Z,7.63
2019-06-07T20:37:38.765Z,10.80
2019-06-07T20:40:22.439Z,10.67
2019-06-07T20:42:40.833Z,10.67
2019-06-07T20:45:10.922Z,10.93
2019-06-07T20:47:42.849Z,10.90
2019-06-07T20:50:13.193Z,11.80
2019-06-07T20:52:42.714Z,12.13
2019-06-07T20:55:13.328Z,12.17
2019-06-07T20:57:42.776Z,12.37
2019-06-07T21:00:21.003Z,14.27
2019-06-07T21:02:44.436Z,11.93
2019-06-07T21:05:13.954Z,12.33
2019-06-07T21:07:43.387Z,12.47
2019-06-07T21:10:13.062Z,13.07
2019-06-07T21:12:42.509Z,13.50
2019-06-07T21:15:14.515Z,12.30
2019-06-07T21:17:43.682Z,12.47
2019-06-07T21:20:14.690Z,12.90
2019-06-07T21:22:44.243Z,13.30
2019-06-07T21:25:13.936Z,13.97
2019-06-07T21:27:43.448Z,12.63
2019-06-07T21:30:12.962Z,12.73
2019-06-07T21:32:42.798Z,13.47
2019-06-07T21:35:13.298Z,12.73
2019-06-07T21:37:46.323Z,12.97
2019-06-07T21:40:16.708Z,13.17
2019-06-07T21:42:46.272Z,11.53
2019-06-07T21:45:16.389Z,12.07
2019-06-07T21:47:46.171Z,10.37
2019-06-07T21:50:15.951Z,11.07
2019-06-07T21:52:45.479Z,10.67
2019-06-07T21:55:15.137Z,11.73
2019-06-07T21:57:44.571Z,11.37
2019-06-07T22:00:17.765Z,11.40
2019-06-07T22:02:47.318Z,8.97
2019-06-07T22:05:16.795Z,8.87
2019-06-07T22:07:46.169Z,11.17
2019-06-07T22:10:15.888Z,11.60
2019-06-07T22:12:45.303Z,14.60
2019-06-07T22:15:37.448Z,11.63
2019-06-07T22:18:08.477Z,15.90
2019-06-07T22:20:38.232Z,14.63
2019-06-07T22:23:08.601Z,14.87
2019-06-07T22:25:38.170Z,15.43
2019-06-07T22:28:08.095Z,19.37
2019-06-07T22:30:39.327Z,20.13
2019-06-07T22:33:08.986Z,17.27
2019-06-07T22:35:38.414Z,18.83
2019-06-07T22:38:08.157Z,19.03
2019-06-07T22:40:37.809Z,16.90
2019-06-07T22:43:07.573Z,18.93
2019-06-07T22:45:37.343Z,17.57
2019-06-07T22:48:06.966Z,17.10
2019-06-07T22:50:36.639Z,16.77
2019-06-07T22:53:09.589Z,15.43
2019-06-07T22:55:39.025Z,15.23
2019-06-07T22:58:10.031Z,16.20
2019-06-07T23:00:39.782Z,14.53
2019-06-07T23:03:10.657Z,14.60
2019-06-07T23:05:40.401Z,15.40
2019-06-07T23:08:11.043Z,15.23
2019-06-07T23:10:41.873Z,13.90
2019-06-07T23:13:13.568Z,14.33
2019-06-07T23:15:43.210Z,14.10
2019-06-07T23:18:13.456Z,13.63
2019-06-07T23:20:43.599Z,12.30
2019-06-07T23:23:13.120Z,12.00
2019-06-07T23:25:42.520Z,12.67
2019-06-07T23:28:12.405Z,12.63
2019-06-07T23:30:42.233Z,12.47
2019-06-07T23:33:13.019Z,13.93
2019-06-07T23:35:45.374Z,10.83
2019-06-07T23:38:14.980Z,7.33
2019-06-07T23:40:44.535Z,10.43
2019-06-07T23:43:15.191Z,10.57
2019-06-07T23:45:44.791Z,11.70
2019-06-07T23:48:23.553Z,12.23
2019-06-07T23:50:53.148Z,11.17
2019-06-07T23:53:25.492Z,11.50
2019-06-07T23:55:55.165Z,11.47
2019-06-07T23:58:24.905Z,10.63
